Time;durP1;ratioP1;P1;durP2;ratioP2;P2;SDS_P1;SDS_P2;PMS_P1;PMS_P2;Temp;Humidity;BMP_temperature;BMP_pressure;BME280_temperature;BME280_humidity;BME280_pressure;Samples;Min_cycle;Max_cycle;Signal;HPM_P1;HPM_P2
2023/04/30 00:01:05;;;;;;;5.45;3.15;;;16.50;72.20;;;;;;2453413;55;21722;-70
2023/04/30 00:03:32;;;;;;;5.37;3.40;;;16.40;72.10;;;;;;2455480;55;21085;-70
2023/04/30 00:06:03;;;;;;;4.53;2.83;;;16.40;72.10;;;;;;2455653;55;21004;-70
2023/04/30 00:08:30;;;;;;;5.37;3.05;;;16.50;72.10;;;;;;2231621;56;20977;-72
2023/04/30 00:10:56;;;;;;;5.50;3.05;;;16.40;72.10;;;;;;2452763;55;21282;-70
2023/04/30 00:13:22;;;;;;;4.07;2.55;;;16.40;72.10;;;;;;2453759;55;21870;-73
2023/04/30 00:15:51;;;;;;;4.32;2.70;;;16.40;72.20;;;;;;2231699;56;20937;-71
2023/04/30 00:18:18;;;;;;;4.32;2.78;;;16.40;72.00;;;;;;2455204;55;21360;-71
2023/04/30 00:20:45;;;;;;;4.65;3.08;;;16.40;72.20;;;;;;2233892;56;21012;-71
2023/04/30 00:23:12;;;;;;;4.03;2.58;;;16.30;72.20;;;;;;2454786;55;20992;-72
2023/04/30 00:25:38;;;;;;;4.87;3.15;;;16.30;72.20;;;;;;2455786;55;20957;-70
2023/04/30 00:28:04;;;;;;;4.82;3.05;;;16.30;72.30;;;;;;2232796;56;21008;-71
2023/04/30 00:30:32;;;;;;;4.80;3.00;;;16.30;72.40;;;;;;2433200;55;21522;-72
2023/04/30 00:33:02;;;;;;;4.28;2.80;;;16.30;72.40;;;;;;2453442;55;21020;-71
2023/04/30 00:35:29;;;;;;;6.43;3.90;;;16.30;72.20;;;;;;2454821;55;21033;-72
2023/04/30 00:37:57;;;;;;;4.97;3.12;;;16.30;72.40;;;;;;2453689;55;20933;-72
2023/04/30 00:40:24;;;;;;;5.72;3.37;;;16.30;72.40;;;;;;2229889;56;21545;-72
2023/04/30 00:42:54;;;;;;;5.18;3.25;;;16.30;72.40;;;;;;2452964;55;20945;-71
2023/04/30 00:45:22;;;;;;;6.62;4.35;;;16.30;72.10;;;;;;2454708;55;20985;-70
2023/04/30 00:47:50;;;;;;;6.15;4.12;;;16.30;72.20;;;;;;2237633;56;21064;-71
2023/04/30 00:50:19;;;;;;;6.57;4.22;;;16.20;72.10;;;;;;2456301;55;21029;-71
2023/04/30 00:52:46;;;;;;;5.90;4.12;;;16.20;72.10;;;;;;2453375;55;21004;-71
2023/04/30 00:55:12;;;;;;;6.93;4.65;;;16.20;72.20;;;;;;2231316;56;21900;-71
2023/04/30 00:57:39;;;;;;;7.55;4.60;;;16.20;72.20;;;;;;2231151;56;20951;-71
2023/04/30 01:00:10;;;;;;;7.90;4.32;;;16.20;72.30;;;;;;2230864;56;20969;-71
2023/04/30 01:02:37;;;;;;;6.90;4.62;;;16.20;72.30;;;;;;2452904;55;20998;-71
2023/04/30 01:05:04;;;;;;;6.78;4.60;;;16.10;72.20;;;;;;2457495;55;21017;-71
2023/04/30 01:07:31;;;;;;;9.85;5.45;;;16.10;72.20;;;;;;2217128;56;21072;-71
2023/04/30 01:09:57;;;;;;;7.12;4.93;;;16.10;72.20;;;;;;2453164;55;20978;-73
2023/04/30 01:16:23;;;;;;;7.43;5.00;;;16.10;72.20;;;;;;2453296;55;20925;-71
2023/04/30 01:18:58;;;;;;;6.55;4.03;;;16.00;70.90;;;;;;2231263;56;20957;-72
2023/04/30 01:21:26;;;;;;;6.75;4.30;;;16.00;72.00;;;;;;2231961;56;21028;-72
2023/04/30 01:24:17;;;;;;;8.18;5.37;;;16.00;73.00;;;;;;2453537;55;21650;-71
2023/04/30 01:27:13;;;;;;;6.62;4.22;;;15.90;71.60;;;;;;2452121;55;21012;-71
2023/04/30 01:29:39;;;;;;;8.32;4.57;;;15.90;71.60;;;;;;2231143;56;21016;-71
2023/04/30 01:32:05;;;;;;;7.20;4.72;;;15.90;72.50;;;;;;2453169;55;21001;-72
2023/04/30 01:34:32;;;;;;;7.53;4.72;;;15.90;72.50;;;;;;2231494;56;20969;-70
2023/04/30 01:37:23;;;;;;;7.18;4.30;;;15.90;72.60;;;;;;2453988;55;21895;-72
2023/04/30 01:40:43;;;;;;;7.62;4.90;;;15.90;71.90;;;;;;2231429;56;21005;-72
2023/04/30 01:43:48;;;;;;;7.07;4.75;;;15.90;72.30;;;;;;2231640;56;21052;-70
2023/04/30 01:46:35;;;;;;;7.93;5.22;;;15.90;72.60;;;;;;2231753;56;20977;-72
2023/04/30 01:50:52;;;;;;;9.02;5.60;;;15.90;71.80;;;;;;2453121;55;21450;-74
2023/04/30 01:53:31;;;;;;;7.90;4.97;;;15.80;71.30;;;;;;2458310;55;21944;-73
2023/04/30 01:56:01;;;;;;;7.55;4.72;;;15.90;72.30;;;;;;2453634;55;21044;-71
2023/04/30 01:58:28;;;;;;;7.55;4.37;;;15.90;73.50;;;;;;2454325;55;20961;-72
2023/04/30 02:00:58;;;;;;;9.02;5.28;;;15.80;72.90;;;;;;2453843;55;20941;-72
2023/04/30 02:03:24;;;;;;;8.95;5.22;;;15.80;72.90;;;;;;2453665;55;21020;-70
2023/04/30 02:05:50;;;;;;;7.95;5.00;;;15.80;72.90;;;;;;2231567;56;20969;-73
2023/04/30 02:08:20;;;;;;;8.30;5.05;;;15.80;72.90;;;;;;2231530;56;21068;-72
2023/04/30 02:10:46;;;;;;;8.25;5.05;;;15.80;72.90;;;;;;2455885;55;21116;-72
2023/04/30 02:13:12;;;;;;;8.20;5.35;;;15.80;72.90;;;;;;2233326;56;21560;-72
2023/04/30 02:15:39;;;;;;;7.50;4.72;;;15.80;72.80;;;;;;2236723;56;21242;-71
2023/04/30 02:18:06;;;;;;;9.10;4.85;;;15.80;72.80;;;;;;2217122;56;21496;-71
2023/04/30 02:20:32;;;;;;;8.48;5.12;;;15.80;72.90;;;;;;2453787;55;20941;-71
2023/04/30 02:22:58;;;;;;;7.95;5.07;;;15.80;72.80;;;;;;2231136;56;20977;-71
2023/04/30 02:25:25;;;;;;;7.90;5.45;;;15.80;72.90;;;;;;2231557;56;20953;-72
2023/04/30 02:27:51;;;;;;;8.25;5.15;;;15.80;72.80;;;;;;2231376;56;21088;-72
2023/04/30 02:30:19;;;;;;;7.00;4.80;;;15.70;72.80;;;;;;2453799;55;21557;-71
2023/04/30 02:32:46;;;;;;;8.23;5.30;;;15.70;72.80;;;;;;2453375;55;21549;-72
2023/04/30 02:35:12;;;;;;;8.25;4.90;;;15.70;72.70;;;;;;2231135;56;20953;-74
2023/04/30 02:37:40;;;;;;;7.93;5.45;;;15.70;72.80;;;;;;2453488;55;20945;-71
2023/04/30 02:40:10;;;;;;;6.68;4.90;;;15.70;72.80;;;;;;2453352;55;20976;-71
2023/04/30 02:42:38;;;;;;;8.60;5.12;;;15.70;72.90;;;;;;2236928;56;20965;-72
2023/04/30 02:45:04;;;;;;;7.60;5.37;;;15.70;72.90;;;;;;2232512;56;21056;-71
2023/04/30 02:47:34;;;;;;;7.78;5.10;;;15.70;73.00;;;;;;2231196;56;20957;-71
2023/04/30 02:50:00;;;;;;;7.32;5.12;;;15.70;72.80;;;;;;2452478;55;21332;-70
2023/04/30 02:52:27;;;;;;;7.22;4.90;;;15.70;72.90;;;;;;2453769;55;21025;-70
2023/04/30 02:54:54;;;;;;;7.32;5.10;;;15.60;72.80;;;;;;2453109;55;21329;-71
2023/04/30 02:57:20;;;;;;;7.28;5.15;;;15.60;72.80;;;;;;2453877;55;21565;-71
2023/04/30 02:59:46;;;;;;;8.40;5.20;;;15.60;72.90;;;;;;2235716;56;20976;-71
2023/04/30 03:02:12;;;;;;;7.43;5.03;;;15.60;72.90;;;;;;2232590;56;21044;-72
2023/04/30 03:04:39;;;;;;;7.20;4.75;;;15.60;72.90;;;;;;2236130;56;20961;-69
2023/04/30 03:07:05;;;;;;;8.25;5.32;;;15.60;72.90;;;;;;2456671;55;21747;-70
2023/04/30 03:09:31;;;;;;;8.73;5.45;;;15.60;72.90;;;;;;2231277;56;21051;-71
2023/04/30 03:12:01;;;;;;;8.60;5.20;;;15.60;72.80;;;;;;2453379;55;21005;-70
2023/04/30 03:14:29;;;;;;;10.13;5.37;;;15.70;72.80;;;;;;2454094;55;21025;-73
2023/04/30 03:16:58;;;;;;;8.20;5.37;;;15.60;72.80;;;;;;2231535;56;21435;-72
2023/04/30 03:19:25;;;;;;;7.50;5.20;;;15.60;72.80;;;;;;2453065;55;21056;-70
2023/04/30 03:21:51;;;;;;;8.32;5.57;;;15.50;72.70;;;;;;2453029;55;20989;-71
2023/04/30 03:24:18;;;;;;;7.53;5.25;;;15.50;72.70;;;;;;2453730;55;21002;-72
2023/04/30 03:26:46;;;;;;;8.77;5.68;;;15.50;72.80;;;;;;2231144;56;20941;-72
2023/04/30 03:29:12;;;;;;;8.70;6.18;;;15.50;72.80;;;;;;2231362;56;21072;-74
2023/04/30 03:31:38;;;;;;;9.85;5.82;;;15.50;72.80;;;;;;2231344;56;21772;-72
2023/04/30 03:34:04;;;;;;;8.25;5.35;;;15.50;72.90;;;;;;2453190;55;21030;-70
2023/04/30 03:36:32;;;;;;;8.82;5.30;;;15.40;72.80;;;;;;2453661;55;23439;-70
2023/04/30 03:38:58;;;;;;;8.27;4.60;;;15.40;73.00;;;;;;2455487;55;21635;-71
2023/04/30 03:41:25;;;;;;;6.93;4.57;;;15.40;73.00;;;;;;2456716;55;20973;-73
2023/04/30 03:43:52;;;;;;;9.05;5.70;;;15.40;73.00;;;;;;2456991;55;20996;-71
2023/04/30 03:46:18;;;;;;;10.05;5.75;;;15.40;73.10;;;;;;2455490;55;21005;-72
2023/04/30 03:48:44;;;;;;;8.02;5.03;;;15.40;73.20;;;;;;2454128;55;20968;-71
2023/04/30 03:51:11;;;;;;;7.25;5.15;;;15.40;73.30;;;;;;2232254;56;20956;-71
2023/04/30 03:53:37;;;;;;;7.37;4.57;;;15.40;73.30;;;;;;2453922;55;20997;-71
2023/04/30 03:56:03;;;;;;;7.15;4.53;;;15.40;73.30;;;;;;2231601;56;21016;-70
2023/04/30 03:58:30;;;;;;;6.85;4.45;;;15.40;73.30;;;;;;2453186;55;21478;-72
2023/04/30 04:00:57;;;;;;;6.55;4.45;;;15.40;73.30;;;;;;2452990;55;21766;-73
2023/04/30 04:03:25;;;;;;;5.32;3.50;;;15.50;73.30;;;;;;2236542;56;20985;-72
2023/04/30 04:05:51;;;;;;;6.28;3.85;;;15.50;73.30;;;;;;2232985;56;20989;-70
2023/04/30 04:08:17;;;;;;;7.10;4.60;;;15.50;73.30;;;;;;2231318;56;21406;-70
2023/04/30 04:10:47;;;;;;;8.15;5.10;;;15.50;73.20;;;;;;2231365;56;20936;-72
2023/04/30 04:13:13;;;;;;;6.55;4.28;;;15.40;72.90;;;;;;2453491;55;20959;-73
2023/04/30 04:15:39;;;;;;;6.32;3.55;;;15.50;73.20;;;;;;2231761;56;21433;-72
2023/04/30 04:18:07;;;;;;;6.68;3.60;;;15.40;73.10;;;;;;2453398;55;20952;-72
2023/04/30 04:20:34;;;;;;;4.97;3.35;;;15.40;73.10;;;;;;2237956;56;21064;-71
2023/04/30 04:23:01;;;;;;;5.82;3.83;;;15.40;73.10;;;;;;2231226;56;21010;-72
2023/04/30 04:25:27;;;;;;;6.22;3.50;;;15.50;73.20;;;;;;2454376;55;20952;-71
2023/04/30 04:27:53;;;;;;;5.22;3.17;;;15.40;73.10;;;;;;2454369;55;20936;-71
2023/04/30 04:30:20;;;;;;;4.87;2.90;;;15.40;73.10;;;;;;2454180;55;20970;-72
2023/04/30 04:32:50;;;;;;;5.95;3.70;;;15.40;73.00;;;;;;2457689;55;21299;-71
2023/04/30 04:35:18;;;;;;;5.82;3.50;;;15.40;73.10;;;;;;2232229;56;20992;-72
2023/04/30 04:37:47;;;;;;;5.62;3.40;;;15.40;73.10;;;;;;2454155;55;20973;-69
2023/04/30 04:40:14;;;;;;;4.95;2.95;;;15.40;73.10;;;;;;2454048;55;21009;-71
2023/04/30 04:42:40;;;;;;;4.80;3.12;;;15.40;73.20;;;;;;2454832;55;21044;-72
2023/04/30 04:45:08;;;;;;;5.22;3.50;;;15.40;73.20;;;;;;2232387;56;20981;-72
2023/04/30 04:47:35;;;;;;;5.22;3.42;;;15.40;73.20;;;;;;2232349;56;21101;-71
2023/04/30 04:50:01;;;;;;;5.47;3.12;;;15.40;73.30;;;;;;2452859;55;20972;-72
2023/04/30 04:52:27;;;;;;;4.78;2.70;;;15.40;73.30;;;;;;2454336;55;20977;-71
2023/04/30 04:54:54;;;;;;;5.53;3.50;;;15.40;73.30;;;;;;2239714;56;20944;-71
2023/04/30 04:57:20;;;;;;;8.40;3.87;;;15.40;73.30;;;;;;2455553;55;21260;-72
2023/04/30 04:59:47;;;;;;;5.10;3.42;;;15.40;73.40;;;;;;2232615;56;21927;-74
2023/04/30 05:02:13;;;;;;;4.62;2.90;;;15.40;73.40;;;;;;2455316;55;21540;-72
2023/04/30 05:04:40;;;;;;;5.57;3.40;;;15.40;73.50;;;;;;2233166;56;20960;-71
2023/04/30 05:07:07;;;;;;;5.43;3.00;;;15.40;74.10;;;;;;2455312;55;21380;-72
2023/04/30 05:09:34;;;;;;;5.05;3.50;;;15.40;73.30;;;;;;2237824;56;21036;-73
2023/04/30 05:12:01;;;;;;;4.78;3.00;;;15.30;73.30;;;;;;2239842;56;21068;-71
2023/04/30 05:14:27;;;;;;;4.80;3.00;;;15.30;73.30;;;;;;2455636;55;21012;-74
2023/04/30 05:16:53;;;;;;;4.62;2.85;;;15.40;73.60;;;;;;2233404;56;21548;-71
2023/04/30 05:19:21;;;;;;;4.97;3.25;;;15.40;73.70;;;;;;2237619;56;21017;-72
2023/04/30 05:21:47;;;;;;;5.70;3.60;;;15.40;73.80;;;;;;2458085;55;21013;-71
2023/04/30 05:24:15;;;;;;;5.10;3.20;;;15.40;73.80;;;;;;2455241;55;21033;-71
2023/04/30 05:26:41;;;;;;;4.62;3.05;;;15.40;73.80;;;;;;2232114;56;20937;-70
2023/04/30 05:29:09;;;;;;;4.85;3.17;;;15.40;73.90;;;;;;2454406;55;21005;-71
2023/04/30 05:31:35;;;;;;;5.05;3.37;;;15.50;74.10;;;;;;2454324;55;21454;-71
2023/04/30 05:34:01;;;;;;;5.60;3.50;;;15.50;74.10;;;;;;2232782;56;21820;-73
2023/04/30 05:36:28;;;;;;;5.95;3.90;;;15.50;74.10;;;;;;2454579;55;21045;-72
2023/04/30 05:38:54;;;;;;;6.03;3.33;;;15.50;74.20;;;;;;2233021;56;21766;-72
2023/04/30 05:41:23;;;;;;;5.00;3.28;;;15.50;74.20;;;;;;2454736;55;21492;-72
2023/04/30 05:43:49;;;;;;;5.82;3.45;;;15.60;74.30;;;;;;2455526;55;21048;-72
2023/04/30 05:46:16;;;;;;;6.20;3.47;;;15.70;74.50;;;;;;2455564;55;21601;-72
2023/04/30 05:48:42;;;;;;;5.45;3.70;;;15.70;74.60;;;;;;2232750;56;20922;-70
2023/04/30 05:51:09;;;;;;;5.85;3.40;;;15.70;74.50;;;;;;2454164;55;21442;-73
2023/04/30 05:53:36;;;;;;;5.10;3.37;;;15.70;74.50;;;;;;2455133;55;20989;-72
2023/04/30 05:56:02;;;;;;;5.65;3.40;;;15.80;74.60;;;;;;2232217;56;20957;-74
2023/04/30 05:58:29;;;;;;;5.20;3.30;;;15.80;74.70;;;;;;2454998;55;21066;-71
2023/04/30 06:00:56;;;;;;;4.95;3.17;;;15.80;74.70;;;;;;2235961;56;20969;-73
2023/04/30 06:03:22;;;;;;;5.35;2.60;;;15.90;74.70;;;;;;2460429;55;21061;-71
2023/04/30 06:05:49;;;;;;;3.65;2.10;;;15.90;74.70;;;;;;2454920;55;20993;-71
2023/04/30 06:08:16;;;;;;;3.47;1.90;;;15.90;74.80;;;;;;2454267;55;21844;-71
2023/04/30 06:10:43;;;;;;;3.70;2.08;;;16.00;74.90;;;;;;2232073;56;20937;-71
2023/04/30 06:13:10;;;;;;;3.50;2.00;;;16.10;75.10;;;;;;2454380;55;21091;-71
2023/04/30 06:15:37;;;;;;;3.87;2.08;;;16.10;75.00;;;;;;2454915;55;20981;-73
2023/04/30 06:18:03;;;;;;;3.42;1.90;;;16.20;75.00;;;;;;2453926;55;20929;-71
2023/04/30 06:20:29;;;;;;;3.50;1.98;;;16.20;74.90;;;;;;2455267;55;21012;-71
2023/04/30 06:22:56;;;;;;;3.53;2.00;;;16.30;74.90;;;;;;2232347;56;20973;-71
2023/04/30 06:25:23;;;;;;;3.33;1.87;;;16.30;74.80;;;;;;2454307;55;21006;-72
2023/04/30 06:27:52;;;;;;;3.70;2.17;;;16.40;74.90;;;;;;2453693;55;21732;-71
2023/04/30 06:30:19;;;;;;;3.12;1.85;;;16.40;74.80;;;;;;2453924;55;21021;-71
2023/04/30 06:32:45;;;;;;;3.72;2.00;;;16.50;74.90;;;;;;2231942;56;21020;-71
2023/04/30 06:35:11;;;;;;;3.10;1.80;;;16.50;74.80;;;;;;2232895;56;20969;-71
2023/04/30 06:37:38;;;;;;;3.92;1.85;;;16.60;74.90;;;;;;2454901;55;20961;-71
2023/04/30 06:40:06;;;;;;;3.42;1.73;;;16.70;75.00;;;;;;2454776;55;21021;-72
2023/04/30 06:42:34;;;;;;;3.30;1.87;;;16.70;74.90;;;;;;2239188;56;21012;-71
2023/04/30 06:45:01;;;;;;;3.12;1.60;;;16.80;75.00;;;;;;2457200;55;21978;-71
2023/04/30 06:47:36;;;;;;;3.42;2.05;;;16.90;75.20;;;;;;2454218;55;21037;-71
2023/04/30 06:50:03;;;;;;;3.28;1.70;;;16.90;74.90;;;;;;2237661;56;20997;-71
2023/04/30 06:52:29;;;;;;;3.03;1.62;;;17.00;75.30;;;;;;2454477;55;20940;-71
2023/04/30 06:54:56;;;;;;;3.62;2.00;;;17.00;75.20;;;;;;2458424;55;21004;-73
2023/04/30 06:57:23;;;;;;;4.35;2.00;;;17.10;75.20;;;;;;2453981;55;21057;-71
2023/04/30 06:59:50;;;;;;;3.15;1.60;;;17.20;75.40;;;;;;2453815;55;20980;-72
2023/04/30 07:02:17;;;;;;;3.30;1.90;;;17.30;75.40;;;;;;2237312;56;21057;-71
2023/04/30 07:04:43;;;;;;;3.72;2.30;;;17.30;75.50;;;;;;2455751;55;21049;-71
2023/04/30 07:07:10;;;;;;;3.42;1.80;;;17.40;75.70;;;;;;2453975;55;20949;-71
2023/04/30 07:09:36;;;;;;;3.60;2.17;;;17.50;75.90;;;;;;2454694;55;21053;-70
2023/04/30 07:12:04;;;;;;;3.50;2.20;;;17.60;76.20;;;;;;2452936;55;21016;-72
2023/04/30 07:14:31;;;;;;;4.18;1.87;;;17.70;76.60;;;;;;2456432;55;21013;-72
2023/04/30 07:16:57;;;;;;;5.00;2.80;;;17.80;76.90;;;;;;2455738;55;21001;-71
2023/04/30 07:19:25;;;;;;;3.97;2.20;;;18.00;77.10;;;;;;2232208;56;20969;-71
2023/04/30 07:21:52;;;;;;;3.62;2.17;;;18.10;77.20;;;;;;2454387;55;20941;-72
2023/04/30 07:24:18;;;;;;;4.05;1.90;;;18.20;77.40;;;;;;2454143;55;21792;-72
2023/04/30 07:26:45;;;;;;;4.32;2.10;;;18.40;77.60;;;;;;2231880;56;21005;-73
2023/04/30 07:29:11;;;;;;;3.62;2.00;;;18.50;77.60;;;;;;2454165;55;21045;-76
2023/04/30 07:31:37;;;;;;;3.58;2.12;;;18.70;77.60;;;;;;2232105;56;20945;-72
2023/04/30 07:34:04;;;;;;;3.62;2.12;;;18.80;77.50;;;;;;2231200;56;21478;-73
2023/04/30 07:36:30;;;;;;;2.75;1.65;;;18.90;77.50;;;;;;2238831;56;21032;-72
2023/04/30 07:38:57;;;;;;;3.33;1.90;;;19.10;77.30;;;;;;2453937;55;20942;-72
2023/04/30 07:41:24;;;;;;;3.33;1.75;;;19.20;77.10;;;;;;2453932;55;20953;-71
2023/04/30 07:43:50;;;;;;;3.08;1.77;;;19.30;76.80;;;;;;2454217;55;21723;-71
2023/04/30 07:46:18;;;;;;;2.92;1.65;;;19.40;76.70;;;;;;2454201;55;20973;-72
2023/04/30 07:48:45;;;;;;;2.90;1.77;;;19.50;76.70;;;;;;2454414;55;21007;-74
2023/04/30 07:51:13;;;;;;;2.95;1.73;;;19.60;76.60;;;;;;2453820;55;22409;-72
2023/04/30 07:53:41;;;;;;;2.97;1.67;;;19.70;76.70;;;;;;2231660;56;21025;-73
2023/04/30 07:56:08;;;;;;;2.75;1.30;;;19.80;77.00;;;;;;2453380;55;20937;-74
2023/04/30 07:58:37;;;;;;;3.17;1.67;;;19.90;77.00;;;;;;2454760;55;21441;-71
2023/04/30 08:01:03;;;;;;;3.22;1.60;;;20.00;76.70;;;;;;2453805;55;20969;-73
2023/04/30 08:03:30;;;;;;;2.62;1.37;;;20.10;76.60;;;;;;2231264;56;21017;-72
2023/04/30 08:05:56;;;;;;;2.62;1.45;;;20.20;76.40;;;;;;2453881;55;20985;-71
2023/04/30 08:08:22;;;;;;;3.47;1.70;;;20.20;75.90;;;;;;2454224;55;21072;-73
2023/04/30 08:10:53;;;;;;;2.97;1.58;;;20.30;75.70;;;;;;2453609;55;21000;-72
2023/04/30 08:13:20;;;;;;;3.85;1.83;;;20.40;75.10;;;;;;2453988;55;21329;-73
2023/04/30 08:15:47;;;;;;;3.00;1.70;;;20.50;75.60;;;;;;2238284;56;21025;-73
2023/04/30 08:18:13;;;;;;;2.83;1.50;;;20.50;75.70;;;;;;2453672;55;21060;-73
2023/04/30 08:20:39;;;;;;;2.83;1.73;;;20.60;75.50;;;;;;2454433;55;20980;-74
2023/04/30 08:23:06;;;;;;;2.97;1.42;;;20.70;75.20;;;;;;2453282;55;21056;-72
2023/04/30 08:25:33;;;;;;;2.90;1.52;;;20.70;74.90;;;;;;2453956;55;21000;-74
2023/04/30 08:27:59;;;;;;;3.10;1.40;;;20.70;74.80;;;;;;2231428;56;21057;-72
2023/04/30 08:30:26;;;;;;;4.03;1.62;;;20.80;75.00;;;;;;2454220;55;21759;-73
2023/04/30 08:32:53;;;;;;;2.85;1.40;;;20.90;75.10;;;;;;2452947;55;21081;-74
2023/04/30 08:35:22;;;;;;;2.40;1.25;;;20.90;74.80;;;;;;2236932;56;21749;-73
2023/04/30 08:37:52;;;;;;;2.50;1.30;;;21.00;74.80;;;;;;2459712;55;21075;-77
2023/04/30 08:40:19;;;;;;;2.92;1.40;;;21.00;74.50;;;;;;2435279;55;21032;-75
2023/04/30 08:42:57;;;;;;;2.20;1.20;;;21.10;74.20;;;;;;2452828;55;21023;-75
2023/04/30 08:45:26;;;;;;;2.20;1.23;;;21.10;73.40;;;;;;2454160;55;20980;-74
2023/04/30 08:47:53;;;;;;;2.03;1.00;;;21.20;74.50;;;;;;2454053;55;21021;-72
2023/04/30 08:50:19;;;;;;;2.50;1.20;;;21.30;74.40;;;;;;2230218;56;20989;-73
2023/04/30 08:52:49;;;;;;;3.70;1.25;;;21.30;74.20;;;;;;2235680;56;21069;-74
2023/04/30 08:55:15;;;;;;;3.08;1.25;;;21.40;74.20;;;;;;2456062;55;21004;-72
2023/04/30 08:57:44;;;;;;;2.65;1.37;;;21.40;74.10;;;;;;2453057;55;20993;-71
2023/04/30 09:00:11;;;;;;;2.50;1.23;;;21.50;74.20;;;;;;2453160;55;20976;-72
2023/04/30 09:02:47;;;;;;;2.53;1.30;;;21.60;74.20;;;;;;2233424;56;21037;-73
2023/04/30 09:05:15;;;;;;;3.00;1.20;;;21.60;74.10;;;;;;2238127;56;20952;-73
2023/04/30 09:07:42;;;;;;;3.47;1.12;;;21.70;74.10;;;;;;2452392;55;20936;-75
2023/04/30 09:10:18;;;;;;;2.90;1.10;;;21.80;73.70;;;;;;2230666;56;21472;-73
2023/04/30 09:13:00;;;;;;;2.97;1.10;;;21.80;73.40;;;;;;2453635;55;21021;-73
2023/04/30 09:15:27;;;;;;;2.75;1.12;;;21.90;72.30;;;;;;2458389;55;20961;-71
2023/04/30 09:18:16;;;;;;;3.15;1.05;;;21.90;74.00;;;;;;2455422;55;21001;-74
2023/04/30 09:21:04;;;;;;;2.28;1.35;;;22.00;72.20;;;;;;2454601;55;20997;-70
2023/04/30 09:23:30;;;;;;;2.20;1.10;;;22.10;71.40;;;;;;2452928;55;20960;-71
2023/04/30 09:25:57;;;;;;;2.15;1.02;;;22.10;73.80;;;;;;2453601;55;20953;-73
2023/04/30 09:28:27;;;;;;;2.60;1.12;;;22.20;73.40;;;;;;2452233;55;21909;-73
2023/04/30 09:30:58;;;;;;;2.20;1.20;;;22.30;73.30;;;;;;2452373;55;20977;-74
2023/04/30 09:33:29;;;;;;;2.20;1.10;;;22.40;72.90;;;;;;2231734;56;21009;-75
2023/04/30 09:35:56;;;;;;;2.65;1.12;;;22.40;73.00;;;;;;2453190;55;20973;-73
2023/04/30 09:38:29;;;;;;;3.08;1.10;;;22.40;73.10;;;;;;2455599;55;20993;-72
2023/04/30 09:41:00;;;;;;;2.10;1.00;;;22.50;72.60;;;;;;2455754;55;20977;-71
2023/04/30 09:43:29;;;;;;;2.20;1.02;;;22.50;73.20;;;;;;2454110;55;20949;-73
2023/04/30 09:45:58;;;;;;;2.00;1.05;;;22.60;73.00;;;;;;2454626;55;20989;-74
2023/04/30 09:48:31;;;;;;;2.30;1.20;;;22.70;73.40;;;;;;2453343;55;21092;-74
2023/04/30 09:51:06;;;;;;;2.20;1.10;;;22.70;73.90;;;;;;2454099;55;21057;-74
2023/04/30 09:53:36;;;;;;;2.50;1.30;;;22.70;74.00;;;;;;2454219;55;20941;-73
2023/04/30 09:56:06;;;;;;;2.40;1.33;;;22.90;73.50;;;;;;2230385;56;21038;-73
2023/04/30 09:58:36;;;;;;;2.30;1.15;;;22.90;73.00;;;;;;2453624;55;20964;-72
2023/04/30 10:01:07;;;;;;;3.05;1.40;;;23.00;73.00;;;;;;2455116;55;21447;-73
2023/04/30 10:03:33;;;;;;;2.60;1.40;;;23.10;72.90;;;;;;2231594;56;20969;-74
2023/04/30 10:06:04;;;;;;;2.45;1.30;;;23.20;73.80;;;;;;2453068;55;20957;-74
2023/04/30 10:08:33;;;;;;;2.83;1.50;;;23.30;73.10;;;;;;2452864;55;20941;-74
2023/04/30 10:11:03;;;;;;;2.20;0.95;;;23.30;73.60;;;;;;2231157;56;20997;-73
2023/04/30 10:13:32;;;;;;;2.65;1.30;;;23.40;72.80;;;;;;2453097;55;20969;-74
2023/04/30 10:16:06;;;;;;;2.47;1.20;;;23.50;73.60;;;;;;2453115;55;21068;-75
2023/04/30 10:18:38;;;;;;;3.12;1.30;;;23.60;72.40;;;;;;2452908;55;21024;-76
2023/04/30 10:21:09;;;;;;;2.20;1.13;;;23.70;72.20;;;;;;2454812;55;21004;-75
2023/04/30 10:23:36;;;;;;;2.80;1.23;;;23.70;72.80;;;;;;2453184;55;21635;-75
2023/04/30 10:26:03;;;;;;;2.65;1.30;;;23.80;72.70;;;;;;2452451;55;20957;-75
2023/04/30 10:28:29;;;;;;;2.33;1.10;;;23.80;72.80;;;;;;2453624;55;21332;-77
2023/04/30 10:30:57;;;;;;;2.17;1.25;;;23.90;72.50;;;;;;2231893;56;21461;-76
2023/04/30 10:34:01;;;;;;;2.53;1.25;;;23.90;72.40;;;;;;2453367;55;21014;-75
2023/04/30 10:36:49;;;;;;;2.28;1.20;;;24.00;69.20;;;;;;2231573;56;20989;-75
2023/04/30 10:39:22;;;;;;;2.25;1.12;;;24.00;71.60;;;;;;2452271;55;21036;-75
2023/04/30 10:41:54;;;;;;;2.60;1.30;;;24.00;71.00;;;;;;2458109;55;20976;-75
2023/04/30 10:44:26;;;;;;;2.20;1.20;;;24.00;71.70;;;;;;2453347;55;21016;-75
2023/04/30 10:47:02;;;;;;;2.20;1.12;;;24.00;71.10;;;;;;2230832;56;21697;-73
2023/04/30 10:49:29;;;;;;;2.08;1.08;;;24.10;70.10;;;;;;2453515;55;20997;-76
2023/04/30 10:52:06;;;;;;;2.67;1.40;;;24.10;71.60;;;;;;2453606;55;20993;-74
2023/04/30 10:54:34;;;;;;;2.35;1.10;;;24.10;71.00;;;;;;2458665;55;21050;-75
2023/04/30 10:57:16;;;;;;;2.30;1.30;;;24.20;71.40;;;;;;2231293;56;20965;-74
2023/04/30 10:59:51;;;;;;;2.60;1.40;;;24.20;69.00;;;;;;2231474;56;20949;-75
2023/04/30 11:02:17;;;;;;;4.07;1.60;;;24.20;71.20;;;;;;2452571;55;20989;-75
2023/04/30 11:05:21;;;;;;;2.70;1.27;;;24.20;71.00;;;;;;2456779;55;20985;-74
2023/04/30 11:07:56;;;;;;;2.62;1.27;;;24.20;68.30;;;;;;2456888;55;20960;-75
2023/04/30 11:10:26;;;;;;;2.30;1.23;;;24.20;69.30;;;;;;2456956;55;21020;-75
2023/04/30 11:12:55;;;;;;;1.98;1.10;;;24.20;70.50;;;;;;2452922;55;20945;-74
2023/04/30 11:15:41;;;;;;;2.72;1.27;;;24.30;71.10;;;;;;2452359;55;20941;-74
2023/04/30 11:18:08;;;;;;;3.15;1.30;;;24.30;69.70;;;;;;2452437;55;21492;-75
2023/04/30 11:20:39;;;;;;;2.55;1.30;;;24.30;71.10;;;;;;2230629;56;21398;-74
2023/04/30 11:23:13;;;;;;;2.35;1.23;;;24.30;70.10;;;;;;2453152;55;21136;-75
2023/04/30 11:25:45;;;;;;;2.20;1.30;;;24.40;70.50;;;;;;2453310;55;20965;-74
2023/04/30 11:28:16;;;;;;;3.37;1.35;;;24.40;71.20;;;;;;2452933;55;21013;-74
2023/04/30 11:31:10;;;;;;;;;;;24.40;70.40;;;;;;2239255;56;20992;-74
2023/04/30 11:33:40;;;;;;;4.32;2.55;;;24.50;69.00;;;;;;2233386;56;20082;-76
2023/04/30 11:36:09;;;;;;;3.60;2.20;;;24.60;72.30;;;;;;2452479;55;21034;-73
2023/04/30 11:38:36;;;;;;;4.03;1.73;;;24.60;72.10;;;;;;2237588;56;21000;-74
2023/04/30 11:41:09;;;;;;;2.60;1.45;;;24.70;71.60;;;;;;2239301;56;21862;-75
2023/04/30 11:43:38;;;;;;;;;;;24.70;70.90;;;;;;2460785;55;21037;-73
2023/04/30 11:46:16;;;;;;;2.20;1.15;;;24.80;68.70;;;;;;2240712;56;20630;-72
2023/04/30 11:48:53;;;;;;;2.70;1.40;;;24.80;70.40;;;;;;2240531;56;21500;-74
2023/04/30 11:51:21;;;;;;;2.28;1.17;;;24.80;70.60;;;;;;2457292;55;20941;-72
2023/04/30 11:53:51;;;;;;;2.17;1.27;;;24.80;70.30;;;;;;2240475;56;21901;-72
2023/04/30 11:56:20;;;;;;;2.58;1.40;;;24.80;69.60;;;;;;2454289;55;20977;-73
2023/04/30 11:58:49;;;;;;;2.12;1.10;;;24.80;70.40;;;;;;2459040;55;20945;-73
2023/04/30 12:01:16;;;;;;;2.20;1.30;;;24.80;70.20;;;;;;2230567;56;21450;-73
2023/04/30 12:03:46;;;;;;;2.80;1.30;;;24.80;70.50;;;;;;2453561;55;21010;-73
2023/04/30 12:06:20;;;;;;;2.78;1.45;;;24.90;69.80;;;;;;2230452;56;20985;-74
2023/04/30 12:08:47;;;;;;;2.40;1.30;;;24.90;68.50;;;;;;2237191;56;21069;-74
2023/04/30 12:11:21;;;;;;;2.85;1.25;;;24.90;69.90;;;;;;2236106;56;20940;-73
2023/04/30 12:14:02;;;;;;;2.70;1.50;;;24.90;68.80;;;;;;2231496;56;20969;-73
2023/04/30 12:16:50;;;;;;;2.65;1.45;;;24.90;69.40;;;;;;2453600;55;21009;-73
2023/04/30 12:19:19;;;;;;;3.17;1.48;;;24.90;66.90;;;;;;2452626;55;21005;-72
2023/04/30 12:21:47;;;;;;;2.60;1.30;;;24.90;68.70;;;;;;2454182;55;21025;-75
2023/04/30 12:24:15;;;;;;;3.87;1.50;;;24.90;69.20;;;;;;2230286;56;21052;-74
2023/04/30 12:26:41;;;;;;;3.55;2.10;;;24.90;69.00;;;;;;2452837;55;20981;-74
2023/04/30 12:29:15;;;;;;;3.70;2.10;;;24.90;69.20;;;;;;2230731;56;21092;-72
2023/04/30 12:31:42;;;;;;;2.97;1.62;;;24.90;68.90;;;;;;2456314;55;20976;-73
2023/04/30 12:34:13;;;;;;;3.30;1.60;;;24.90;69.10;;;;;;2454790;55;21037;-70
2023/04/30 12:36:42;;;;;;;2.70;1.40;;;24.90;67.80;;;;;;2453200;55;20989;-71
2023/04/30 12:39:14;;;;;;;2.72;1.60;;;24.90;69.00;;;;;;2452621;55;20953;-70
2023/04/30 12:41:42;;;;;;;2.65;1.58;;;24.90;69.00;;;;;;2453700;55;20980;-71
2023/04/30 12:44:22;;;;;;;2.40;1.30;;;24.90;68.70;;;;;;2453116;55;20969;-70
2023/04/30 12:46:56;;;;;;;2.37;1.35;;;24.90;66.30;;;;;;2232222;56;20937;-70
2023/04/30 12:49:29;;;;;;;2.55;1.30;;;24.90;67.80;;;;;;2230261;56;21021;-71
2023/04/30 12:52:08;;;;;;;2.00;1.10;;;24.90;68.60;;;;;;2236593;56;20997;-70
2023/04/30 12:54:35;;;;;;;2.05;0.95;;;24.90;66.60;;;;;;2241020;56;21037;-71
2023/04/30 12:57:14;;;;;;;2.30;1.20;;;24.90;68.70;;;;;;2449059;55;21448;-71
2023/04/30 13:00:00;;;;;;;2.40;1.33;;;24.90;68.00;;;;;;2231262;56;21093;-72
2023/04/30 13:02:27;;;;;;;2.05;1.10;;;24.90;66.30;;;;;;2453402;55;21093;-72
2023/04/30 13:04:56;;;;;;;2.08;1.08;;;24.90;68.70;;;;;;2453555;55;20949;-70